Time;durP1;ratioP1;P1;durP2;ratioP2;P2;SDS_P1;SDS_P2;PMS_P1;PMS_P2;Temp;Humidity;BMP_temperature;BMP_pressure;BME280_temperature;BME280_humidity;BME280_pressure;Samples;Min_cycle;Max_cycle;Signal;HPM_P1;HPM_P2
2023/10/19 00:00:57;;;;;;;;;;;8.60;99.90;;;;;;12576812;28;20658;-39
2023/10/19 00:06:59;;;;;;;;;;;8.70;99.90;;;;;;12611169;28;20380;-39
2023/10/19 00:13:03;;;;;;;;;;;8.70;99.90;;;;;;12613228;28;19936;-39
2023/10/19 00:19:05;;;;;;;;;;;8.50;99.90;;;;;;12592180;28;19932;-39
2023/10/19 00:25:09;;;;;;;;;;;8.50;99.90;;;;;;12616068;28;20465;-39
2023/10/19 00:31:11;;;;;;;;;;;8.50;99.90;;;;;;12605776;28;20352;-39
2023/10/19 00:37:19;;;;;;;;;;;8.50;99.90;;;;;;12597726;28;19970;-39
2023/10/19 00:43:28;;;;;;;;;;;8.40;99.90;;;;;;12595653;28;19967;-38
2023/10/19 00:49:30;;;;;;;;;;;8.30;99.90;;;;;;12612390;28;20395;-39
2023/10/19 00:55:33;;;;;;;;;;;8.20;99.90;;;;;;12626246;28;19924;-38
2023/10/19 01:01:40;;;;;;;;;;;8.20;99.90;;;;;;12611177;28;20407;-39
2023/10/19 01:07:44;;;;;;;;;;;8.10;99.90;;;;;;12614003;28;19928;-39
2023/10/19 01:13:48;;;;;;;;;;;8.20;99.90;;;;;;12617253;28;20490;-39
2023/10/19 01:19:49;;;;;;;;;;;8.20;99.90;;;;;;12622005;28;20692;-38
2023/10/19 01:32:06;;;;;;;;;;;8.20;99.90;;;;;;12607577;28;19988;-38
2023/10/19 01:38:08;;;;;;;;;;;8.30;99.90;;;;;;12602425;28;20019;-39
2023/10/19 01:44:13;;;;;;;;;;;8.30;99.90;;;;;;12616709;28;20055;-39
2023/10/19 01:50:19;;;;;;;;;;;8.30;99.90;;;;;;12589203;28;19963;-38
2023/10/19 01:56:22;;;;;;;;;;;8.30;99.90;;;;;;12595440;28;19973;-37
2023/10/19 02:02:23;;;;;;;;;;;8.30;99.90;;;;;;12615907;28;20471;-39
2023/10/19 02:08:26;;;;;;;;;;;8.30;99.90;;;;;;12605982;28;20650;-40
2023/10/19 02:14:28;;;;;;;;;;;8.30;99.90;;;;;;12575681;28;20293;-37
2023/10/19 02:20:31;;;;;;;;;;;8.20;99.90;;;;;;12551872;28;20884;-36
2023/10/19 02:26:46;;;;;;;;;;;8.20;99.90;;;;;;12570414;28;19935;-37
2023/10/19 02:32:48;;;;;;;;;;;8.40;99.90;;;;;;12561633;28;19928;-36
2023/10/19 02:38:51;;;;;;;;;;;8.40;99.90;;;;;;12565075;28;19942;-37
2023/10/19 02:44:53;;;;;;;;;;;8.30;99.90;;;;;;12547818;28;19928;-38
2023/10/19 02:50:55;;;;;;;;;;;8.20;99.90;;;;;;12549445;28;19968;-37
2023/10/19 02:56:58;;;;;;;;;;;8.20;99.90;;;;;;12570288;28;19936;-37
2023/10/19 03:03:00;;;;;;;;;;;8.20;99.90;;;;;;12559578;28;19973;-38
2023/10/19 03:09:13;;;;;;;;;;;8.20;99.90;;;;;;12557011;28;20011;-37
2023/10/19 03:15:15;;;;;;;;;;;8.30;99.90;;;;;;12570384;28;20515;-38
2023/10/19 03:21:19;;;;;;;;;;;8.40;99.90;;;;;;12614888;28;19924;-38
2023/10/19 03:27:23;;;;;;;;;;;8.40;99.90;;;;;;12617655;28;19932;-37
2023/10/19 03:33:28;;;;;;;;;;;8.40;99.90;;;;;;12607302;28;20299;-37
2023/10/19 03:39:30;;;;;;;;;;;8.50;99.90;;;;;;12564448;28;19950;-37
2023/10/19 03:45:38;;;;;;;;;;;8.50;99.90;;;;;;12594572;28;19934;-37
2023/10/19 03:51:40;;;;;;;;;;;8.60;99.90;;;;;;12620234;28;19973;-37
2023/10/19 03:57:46;;;;;;;;;;;8.60;99.90;;;;;;12612817;28;19960;-38
2023/10/19 04:03:51;;;;;;;;;;;8.60;99.90;;;;;;12615868;28;19935;-37
2023/10/19 04:10:09;;;;;;;;;;;8.60;99.90;;;;;;12611702;28;19981;-37
2023/10/19 04:16:12;;;;;;;;;;;8.70;99.90;;;;;;12608532;28;19927;-37
2023/10/19 04:22:22;;;;;;;;;;;8.70;99.90;;;;;;12585479;28;19928;-37
2023/10/19 04:28:30;;;;;;;;;;;8.70;99.90;;;;;;12601784;28;19939;-38
2023/10/19 04:34:32;;;;;;;;;;;8.70;99.90;;;;;;12594295;28;20455;-37
2023/10/19 04:40:35;;;;;;;;;;;8.80;99.90;;;;;;12582703;28;20185;-37
2023/10/19 04:46:37;;;;;;;;;;;8.70;99.90;;;;;;12601266;28;20385;-37
2023/10/19 04:52:39;;;;;;;;;;;8.80;99.90;;;;;;12588646;28;19985;-40
2023/10/19 04:58:41;;;;;;;;;;;8.80;99.90;;;;;;12611626;28;19932;-37
2023/10/19 05:04:43;;;;;;;;;;;8.90;99.90;;;;;;12596988;28;19936;-37
2023/10/19 05:10:45;;;;;;;;;;;8.90;99.90;;;;;;12582764;28;19962;-37
2023/10/19 05:16:48;;;;;;;;;;;8.90;99.90;;;;;;12612072;28;19932;-37
2023/10/19 05:22:49;;;;;;;;;;;8.80;99.90;;;;;;12603055;28;19936;-37
2023/10/19 05:28:51;;;;;;;;;;;8.80;99.90;;;;;;12584819;28;20480;-37
2023/10/19 05:34:53;;;;;;;;;;;8.90;99.90;;;;;;12619399;28;19976;-37
2023/10/19 05:40:56;;;;;;;;;;;8.80;99.90;;;;;;12610826;28;19967;-37
2023/10/19 05:46:58;;;;;;;;;;;8.80;99.90;;;;;;12597001;28;19928;-37
2023/10/19 05:53:05;;;;;;;;;;;8.80;99.90;;;;;;12623440;28;19928;-37
2023/10/19 05:59:07;;;;;;;;;;;8.90;99.90;;;;;;12623336;28;19971;-37
2023/10/19 06:05:08;;;;;;;;;;;9.00;99.90;;;;;;12602569;28;19936;-38
2023/10/19 06:11:10;;;;;;;;;;;9.00;99.90;;;;;;12602118;28;20512;-37
2023/10/19 06:17:18;;;;;;;;;;;9.00;99.90;;;;;;12614035;28;20475;-37
2023/10/19 06:23:21;;;;;;;;;;;9.10;99.90;;;;;;12619711;28;20449;-37
2023/10/19 06:29:27;;;;;;;;;;;9.00;99.90;;;;;;12617660;28;19936;-38
2023/10/19 06:35:31;;;;;;;;;;;9.10;99.90;;;;;;12594535;28;20415;-37
2023/10/19 06:41:34;;;;;;;;;;;9.10;99.90;;;;;;12609386;28;20384;-37
2023/10/19 06:47:37;;;;;;;;;;;9.20;99.90;;;;;;12619258;28;19928;-39
2023/10/19 06:53:39;;;;;;;;;;;9.20;99.90;;;;;;12623804;28;19974;-37
2023/10/19 06:59:42;;;;;;;;;;;9.30;99.90;;;;;;12608647;28;20570;-38
2023/10/19 07:05:44;;;;;;;;;;;9.40;99.90;;;;;;12608793;28;20456;-37
2023/10/19 07:11:46;;;;;;;;;;;9.40;99.90;;;;;;12606547;28;20035;-37
2023/10/19 07:17:48;;;;;;;;;;;9.40;99.90;;;;;;12598930;28;19936;-36
2023/10/19 07:23:52;;;;;;;;;;;9.50;99.90;;;;;;12598062;28;19981;-37
2023/10/19 07:29:54;;;;;;;;;;;9.60;99.90;;;;;;12620845;28;20280;-39
2023/10/19 07:35:56;;;;;;;;;;;9.70;99.90;;;;;;12613513;28;19928;-37
2023/10/19 07:41:58;;;;;;;;;;;9.90;99.90;;;;;;12584177;28;19963;-36
2023/10/19 07:48:06;;;;;;;;;;;9.80;99.90;;;;;;12606880;28;19928;-37
2023/10/19 07:54:08;;;;;;;;;;;9.90;99.90;;;;;;12611322;28;20304;-36
2023/10/19 08:00:13;;;;;;;;;;;10.00;99.90;;;;;;12617177;28;19951;-38
2023/10/19 08:06:15;;;;;;;;;;;10.00;99.90;;;;;;12577789;28;19932;-37
2023/10/19 08:12:16;;;;;;;;;;;10.20;99.90;;;;;;12613399;28;19931;-37
2023/10/19 08:18:18;;;;;;;;;;;10.30;99.90;;;;;;12601112;28;20421;-37
2023/10/19 08:24:20;;;;;;;;;;;10.40;99.90;;;;;;12616809;28;20407;-37
2023/10/19 08:30:22;;;;;;;;;;;10.50;99.90;;;;;;12608247;28;19972;-37
2023/10/19 08:36:29;;;;;;;;;;;10.50;99.90;;;;;;12590525;28;19932;-37
2023/10/19 08:42:31;;;;;;;;;;;10.60;99.90;;;;;;12591771;28;19953;-36
2023/10/19 08:48:34;;;;;;;;;;;10.60;99.90;;;;;;12600187;28;19942;-36
2023/10/19 08:54:36;;;;;;;;;;;10.50;99.90;;;;;;12616818;28;19963;-37
2023/10/19 09:00:46;;;;;;;;;;;10.50;99.90;;;;;;12616232;28;19932;-37
2023/10/19 09:06:53;;;;;;;;;;;10.60;99.90;;;;;;12598433;28;20032;-37
2023/10/19 09:12:57;;;;;;;;;;;10.80;99.90;;;;;;12585896;28;20606;-37
2023/10/19 09:18:59;;;;;;;;;;;11.10;99.90;;;;;;12620092;28;20408;-37
2023/10/19 09:25:06;;;;;;;;;;;11.10;99.90;;;;;;12625125;28;19932;-36
2023/10/19 09:31:09;;;;;;;;;;;11.20;99.90;;;;;;12608345;28;19928;-37
2023/10/19 09:37:12;;;;;;;;;;;11.40;99.90;;;;;;12618215;28;20000;-37
2023/10/19 09:43:40;;;;;;;;;;;11.60;99.90;;;;;;12601840;28;19967;-37
2023/10/19 09:49:42;;;;;;;;;;;11.50;99.90;;;;;;12618709;28;19928;-37
2023/10/19 09:55:45;;;;;;;;;;;11.70;99.90;;;;;;12625091;28;19928;-36
2023/10/19 10:02:12;;;;;;;;;;;11.80;99.90;;;;;;12618993;28;20005;-37
2023/10/19 10:08:18;;;;;;;;;;;11.90;99.90;;;;;;12606611;28;19935;-37
2023/10/19 10:14:24;;;;;;;;;;;12.00;99.90;;;;;;12578890;28;19928;-37
2023/10/19 10:20:30;;;;;;;;;;;12.10;99.90;;;;;;12562662;28;19928;-37
2023/10/19 10:26:53;;;;;;;;;;;12.30;99.90;;;;;;12572834;28;19935;-37
2023/10/19 10:32:59;;;;;;;;;;;12.30;99.90;;;;;;12568780;28;19925;-36
2023/10/19 10:39:05;;;;;;;;;;;12.40;99.90;;;;;;12555820;28;20304;-37
2023/10/19 10:45:09;;;;;;;;;;;12.50;99.90;;;;;;12550442;28;19975;-36
2023/10/19 10:51:21;;;;;;;;;;;12.50;99.90;;;;;;12572187;28;19942;-36
2023/10/19 10:57:24;;;;;;;;;;;12.50;99.90;;;;;;12568925;28;19975;-37
2023/10/19 11:03:29;;;;;;;;;;;12.40;99.90;;;;;;12561439;28;19928;-37
2023/10/19 11:09:43;;;;;;;;;;;12.50;99.90;;;;;;12552789;28;20527;-37
2023/10/19 11:15:49;;;;;;;;;;;12.70;99.90;;;;;;12569359;28;20391;-37
2023/10/19 11:21:54;;;;;;;;;;;13.10;99.90;;;;;;12605002;28;19928;-38
2023/10/19 11:28:01;;;;;;;;;;;13.30;99.90;;;;;;12593375;28;19981;-37
2023/10/19 11:34:03;;;;;;;;;;;13.70;99.90;;;;;;12593062;28;19935;-37
2023/10/19 11:40:06;;;;;;;;;;;13.90;99.90;;;;;;12589008;28;19963;-38
2023/10/19 11:46:08;;;;;;;;;;;14.10;99.90;;;;;;12609272;28;19928;-37
2023/10/19 11:52:10;;;;;;;;;;;14.10;99.90;;;;;;12620862;28;20260;-37
2023/10/19 11:58:13;;;;;;;;;;;14.00;99.90;;;;;;12616545;28;19988;-37
2023/10/19 12:04:15;;;;;;;;;;;13.90;99.90;;;;;;12615625;28;20430;-37
2023/10/19 12:10:20;;;;;;;;;;;14.20;99.90;;;;;;12599826;28;19932;-37
2023/10/19 12:16:23;;;;;;;;;;;14.30;99.90;;;;;;12570380;28;19939;-38
2023/10/19 12:22:32;;;;;;;;;;;14.30;99.90;;;;;;12543510;28;19928;-38
2023/10/19 12:28:34;;;;;;;;;;;14.20;99.90;;;;;;12556883;28;20406;-37
2023/10/19 12:34:35;;;;;;;;;;;14.20;99.90;;;;;;12542762;28;19936;-37
2023/10/19 12:40:37;;;;;;;;;;;14.20;99.90;;;;;;12546811;28;19928;-36
2023/10/19 12:46:40;;;;;;;;;;;14.20;99.90;;;;;;12547789;28;19929;-36
2023/10/19 12:52:44;;;;;;;;;;;14.30;99.90;;;;;;12535939;28;19941;-37
2023/10/19 12:58:46;;;;;;;;;;;14.20;99.90;;;;;;12547771;28;20403;-37
2023/10/19 13:04:48;;;;;;;;;;;14.10;99.90;;;;;;12552430;28;19982;-37
2023/10/19 13:10:50;;;;;;;;;;;14.00;99.90;;;;;;12529499;28;19939;-37
2023/10/19 13:16:54;;;;;;;;;;;14.00;99.90;;;;;;12579848;28;19924;-37
2023/10/19 13:22:57;;;;;;;;;;;14.00;99.90;;;;;;12599162;28;20156;-37
2023/10/19 13:28:59;;;;;;;;;;;13.90;99.90;;;;;;12612843;28;19928;-37
2023/10/19 13:35:01;;;;;;;;;;;13.70;99.90;;;;;;12579387;28;19934;-37
2023/10/19 13:41:09;;;;;;;;;;;13.70;99.90;;;;;;12595699;28;19928;-36
2023/10/19 13:47:11;;;;;;;;;;;13.60;99.90;;;;;;12602301;28;19979;-36
2023/10/19 13:53:14;;;;;;;;;;;13.60;99.90;;;;;;12614091;28;19932;-37
2023/10/19 13:59:16;;;;;;;;;;;13.60;99.90;;;;;;12618685;28;20007;-37
2023/10/19 14:05:18;;;;;;;;;;;13.70;99.90;;;;;;12612201;28;20303;-36
2023/10/19 14:11:21;;;;;;;;;;;13.80;99.90;;;;;;12596559;28;20002;-37
2023/10/19 14:17:23;;;;;;;;;;;14.00;99.90;;;;;;12604394;28;19928;-37
2023/10/19 14:23:25;;;;;;;;;;;14.00;99.90;;;;;;12595439;28;19931;-37
2023/10/19 14:29:27;;;;;;;;;;;14.00;99.90;;;;;;12592069;28;20015;-37
2023/10/19 14:35:29;;;;;;;;;;;13.80;99.90;;;;;;12601189;28;19973;-38
2023/10/19 14:41:31;;;;;;;;;;;13.70;99.90;;;;;;12592780;28;19932;-37
2023/10/19 14:47:32;;;;;;;;;;;13.60;99.90;;;;;;12602716;28;19928;-37
2023/10/19 14:53:34;;;;;;;;;;;13.70;99.90;;;;;;12592841;28;19935;-38
2023/10/19 14:59:37;;;;;;;;;;;13.70;99.90;;;;;;12599448;28;19936;-37
2023/10/19 15:05:40;;;;;;;;;;;13.60;99.90;;;;;;12584619;28;19935;-37
2023/10/19 15:11:43;;;;;;;;;;;13.60;99.90;;;;;;12581065;28;19928;-37
2023/10/19 15:17:45;;;;;;;;;;;13.50;99.90;;;;;;12554392;28;19928;-37
2023/10/19 15:23:49;;;;;;;;;;;13.40;99.90;;;;;;12548991;28;20019;-37
2023/10/19 15:29:51;;;;;;;;;;;13.30;99.90;;;;;;12554365;28;19928;-37
2023/10/19 15:35:53;;;;;;;;;;;13.30;99.90;;;;;;12552489;28;19978;-37
2023/10/19 15:41:56;;;;;;;;;;;13.30;99.90;;;;;;12531971;28;19934;-38
2023/10/19 15:47:58;;;;;;;;;;;13.30;99.90;;;;;;12532976;28;20291;-37
2023/10/19 15:54:02;;;;;;;;;;;13.10;99.90;;;;;;12549731;28;20020;-37
2023/10/19 16:00:04;;;;;;;;;;;13.00;99.90;;;;;;12548720;28;19982;-37
2023/10/19 16:06:06;;;;;;;;;;;12.90;99.90;;;;;;12546207;28;19928;-37
2023/10/19 16:12:09;;;;;;;;;;;12.60;99.90;;;;;;12534183;28;19929;-37
2023/10/19 16:18:11;;;;;;;;;;;12.30;99.90;;;;;;12593711;28;19957;-36
2023/10/19 16:24:14;;;;;;;;;;;12.10;99.90;;;;;;12619636;28;19932;-37
2023/10/19 16:30:16;;;;;;;;;;;12.00;99.90;;;;;;12603300;28;19924;-36
2023/10/19 16:36:19;;;;;;;;;;;12.00;99.90;;;;;;12608673;28;19960;-36
2023/10/19 16:42:21;;;;;;;;;;;11.80;99.90;;;;;;12592430;28;20790;-37
2023/10/19 16:48:23;;;;;;;;;;;11.70;99.90;;;;;;12613297;28;19973;-37
2023/10/19 16:54:25;;;;;;;;;;;11.70;99.90;;;;;;12609863;28;19923;-37
2023/10/19 17:00:30;;;;;;;;;;;11.60;99.90;;;;;;12606510;28;20015;-37
2023/10/19 17:06:32;;;;;;;;;;;11.40;99.90;;;;;;12597463;28;20361;-37
2023/10/19 17:12:35;;;;;;;;;;;11.40;99.90;;;;;;12594019;28;19928;-37
2023/10/19 17:18:37;;;;;;;;;;;11.40;99.90;;;;;;12588139;28;20019;-36
2023/10/19 17:24:39;;;;;;;;;;;11.20;99.90;;;;;;12610807;28;19957;-36
2023/10/19 17:30:41;;;;;;;;;;;11.20;99.90;;;;;;12630444;28;19977;-36
2023/10/19 17:36:45;;;;;;;;;;;10.90;99.90;;;;;;12611867;28;20376;-36
2023/10/19 17:42:46;;;;;;;;;;;10.90;99.90;;;;;;12604798;28;20491;-36
2023/10/19 17:48:48;;;;;;;;;;;10.80;99.90;;;;;;12626838;28;20791;-36
2023/10/19 17:54:50;;;;;;;;;;;10.70;99.90;;;;;;12624537;28;19928;-36
2023/10/19 18:00:52;;;;;;;;;;;10.80;99.90;;;;;;12611067;28;20019;-36
2023/10/19 18:06:53;;;;;;;;;;;10.70;99.90;;;;;;12618674;28;19959;-37
2023/10/19 18:12:56;;;;;;;;;;;10.60;99.90;;;;;;12596184;28;19988;-36
2023/10/19 18:18:57;;;;;;;;;;;10.60;99.90;;;;;;12617350;28;20345;-36
2023/10/19 18:24:59;;;;;;;;;;;10.60;99.90;;;;;;12611820;28;20013;-37
2023/10/19 18:31:01;;;;;;;;;;;10.50;99.90;;;;;;12591606;28;20023;-36
2023/10/19 18:37:03;;;;;;;;;;;10.60;99.90;;;;;;12607529;28;19964;-37
2023/10/19 18:43:05;;;;;;;;;;;10.60;99.90;;;;;;12606666;28;20387;-37
2023/10/19 18:49:08;;;;;;;;;;;10.50;99.90;;;;;;12601946;28;19974;-36
2023/10/19 18:55:17;;;;;;;;;;;10.60;99.90;;;;;;12612990;28;19928;-36
2023/10/19 19:01:19;;;;;;;;;;;10.50;99.90;;;;;;12616848;28;19927;-36
2023/10/19 19:07:22;;;;;;;;;;;10.50;99.90;;;;;;12610087;28;19935;-37
2023/10/19 19:13:25;;;;;;;;;;;10.40;99.90;;;;;;12594071;28;19928;-36
2023/10/19 19:19:26;;;;;;;;;;;10.40;99.90;;;;;;12533484;28;20002;-36
2023/10/19 19:25:28;;;;;;;;;;;10.30;99.90;;;;;;12569316;28;19953;-37
2023/10/19 19:31:30;;;;;;;;;;;10.20;99.90;;;;;;12551056;28;19955;-36
2023/10/19 19:37:37;;;;;;;;;;;10.10;99.90;;;;;;12564030;28;19929;-37
2023/10/19 19:43:38;;;;;;;;;;;10.00;99.90;;;;;;12553501;28;19928;-37
2023/10/19 19:49:40;;;;;;;;;;;9.90;99.90;;;;;;12555453;28;20343;-37
2023/10/19 19:55:42;;;;;;;;;;;9.90;99.90;;;;;;12562421;28;19975;-37
2023/10/19 20:01:46;;;;;;;;;;;9.90;99.90;;;;;;12568280;28;19932;-37
2023/10/19 20:07:48;;;;;;;;;;;9.80;99.90;;;;;;12550396;28;19934;-36
2023/10/19 20:13:50;;;;;;;;;;;9.90;99.90;;;;;;12575132;28;19970;-37
2023/10/19 20:19:52;;;;;;;;;;;9.80;99.90;;;;;;12613893;28;19932;-37
2023/10/19 20:25:59;;;;;;;;;;;10.10;99.90;;;;;;12609061;28;20416;-37
2023/10/19 20:32:03;;;;;;;;;;;10.30;99.90;;;;;;12609502;28;20384;-37
2023/10/19 20:38:06;;;;;;;;;;;10.30;99.90;;;;;;12590521;28;19935;-37
2023/10/19 20:44:09;;;;;;;;;;;10.40;99.90;;;;;;12569846;28;19932;-37
2023/10/19 20:50:10;;;;;;;;;;;10.50;99.90;;;;;;12608860;28;19974;-37
2023/10/19 20:56:12;;;;;;;;;;;10.30;99.90;;;;;;12605252;28;19936;-36
2023/10/19 21:02:14;;;;;;;;;;;10.30;99.90;;;;;;12621752;28;20136;-37
2023/10/19 21:08:16;;;;;;;;;;;10.30;99.90;;;;;;12607429;28;19959;-38
2023/10/19 21:14:18;;;;;;;;;;;10.40;99.90;;;;;;12597004;28;19924;-36
2023/10/19 21:20:20;;;;;;;;;;;10.40;99.90;;;;;;12611550;28;19924;-37
2023/10/19 21:26:23;;;;;;;;;;;10.40;99.90;;;;;;12625125;28;20441;-37
2023/10/19 21:32:25;;;;;;;;;;;10.40;99.90;;;;;;12626423;28;19974;-37
2023/10/19 21:38:27;;;;;;;;;;;10.40;99.90;;;;;;12622829;28;19931;-37
2023/10/19 21:44:30;;;;;;;;;;;10.30;99.90;;;;;;12597545;28;20394;-37
2023/10/19 21:50:33;;;;;;;;;;;10.30;99.90;;;;;;12622920;28;19932;-38
2023/10/19 21:56:35;;;;;;;;;;;10.20;99.90;;;;;;12624229;28;19935;-37
2023/10/19 22:02:37;;;;;;;;;;;10.20;99.90;;;;;;12617854;28;19928;-37
2023/10/19 22:08:39;;;;;;;;;;;10.20;99.90;;;;;;12615273;28;19928;-37
2023/10/19 22:14:40;;;;;;;;;;;10.10;99.90;;;;;;12609145;28;19932;-37
2023/10/19 22:20:42;;;;;;;;;;;10.20;99.90;;;;;;12612200;28;20391;-37
2023/10/19 22:26:45;;;;;;;;;;;10.20;99.90;;;;;;12624315;28;19928;-37
2023/10/19 22:32:47;;;;;;;;;;;10.10;99.90;;;;;;12625876;28;19972;-37
2023/10/19 22:38:49;;;;;;;;;;;10.00;99.90;;;;;;12599580;28;19932;-37
2023/10/19 22:44:51;;;;;;;;;;;10.00;99.90;;;;;;12605692;28;20441;-37
2023/10/19 22:50:52;;;;;;;;;;;9.80;99.90;;;;;;12584854;28;20350;-37
2023/10/19 22:56:56;;;;;;;;;;;9.90;99.90;;;;;;12620761;28;20453;-37
2023/10/19 23:02:58;;;;;;;;;;;10.00;99.90;;;;;;12606416;28;20343;-37
2023/10/19 23:09:01;;;;;;;;;;;9.90;99.90;;;;;;12596115;28;20031;-37
2023/10/19 23:15:09;;;;;;;;;;;9.80;99.90;;;;;;12594389;28;19935;-37
2023/10/19 23:21:12;;;;;;;;;;;9.80;99.90;;;;;;12609432;28;19934;-37
2023/10/19 23:27:15;;;;;;;;;;;9.80;99.90;;;;;;12595209;28;19932;-37
2023/10/19 23:33:18;;;;;;;;;;;9.80;99.90;;;;;;12606095;28;19962;-37
2023/10/19 23:39:33;;;;;;;;;;;10.00;99.90;;;;;;12582289;28;20018;-37
2023/10/19 23:45:36;;;;;;;;;;;9.90;99.90;;;;;;12603535;28;20019;-37
2023/10/19 23:51:37;;;;;;;;;;;9.80;99.90;;;;;;12621302;28;19992;-37
2023/10/19 23:57:41;;;;;;;;;;;9.80;99.90;;;;;;12585618;28;19928;-37
